»·PEaware :: KLM148 KBUR-KLAS

KLM148 :: KBUR-KLAS

FLIGHT INFORMATION

Flight Status: Arrived
Operator:
KLM
More flights by this operator :: More flights under this callsign
Pilot: Stefano B. (29256)
Aircraft: BOEING 737-800
(B738)
More flights by this aircraft type
Origin: KBUR Bob Hope-Burbank
United States
Destination: KLAS McCarran Intl
United States
More flights between these airports :: More routes between these airports
Route: +SLAPP1 MISEN KEPEC6
File this flight plan on PilotEdge
Remarks:
Altitude:
(Current/Filed)
23,000ft
Speed:
(Current/Filed)
440kts
Departed: 18-May-20 03:01 PM
Arrived: 18-May-20 03:52 PM
Distance/Time
Traveled:
194nm/0:50
Distance/Time
To Go:
Arrived

Flight Plot

Page will automatically refresh every two minutes.


Map Options




Map Legend


Flown Route
Filed Route
Departure Airport
Arrival Airport
Navaid (VOR, NDB)
Fix

Horizontal Profiles

Position Reports

Time Latitude Longitude Heading Altitude Ground
Speed
18-May-20 14:31 34.196767 -118.352175 180 729ft 0kts
18-May-20 14:32 34.196767 -118.352175 180 729ft 0kts
18-May-20 14:33 34.196767 -118.352175 180 729ft 0kts
18-May-20 14:34 34.196767 -118.352175 180 729ft 0kts
18-May-20 14:35 34.196767 -118.352175 180 729ft 0kts
18-May-20 14:36 34.196767 -118.352175 180 729ft 0kts
18-May-20 14:37 34.196767 -118.352175 180 729ft 0kts
18-May-20 14:38 34.196767 -118.352175 180 729ft 0kts
18-May-20 14:39 34.196767 -118.352175 180 729ft 0kts
18-May-20 14:40 34.196767 -118.352175 180 729ft 0kts
18-May-20 14:41 34.196767 -118.352175 180 729ft 0kts
18-May-20 14:42 34.196767 -118.352175 180 729ft 0kts
18-May-20 14:43 34.196767 -118.352175 180 729ft 0kts
18-May-20 14:44 34.196767 -118.352175 180 729ft 0kts
18-May-20 14:45 34.196767 -118.352175 180 729ft 0kts
18-May-20 14:46 34.196767 -118.352175 180 729ft 0kts
18-May-20 14:47 34.196767 -118.352175 180 729ft 0kts
18-May-20 14:48 34.196767 -118.352175 180 729ft 0kts
18-May-20 14:49 34.196767 -118.352175 180 729ft 0kts
18-May-20 14:50 34.197143 -118.351846 268 729ft 2kts
18-May-20 14:51 34.197145 -118.351653 269 729ft 0kts
18-May-20 14:52 34.197145 -118.351660 269 729ft 0kts
18-May-20 14:53 34.197124 -118.353246 267 729ft 6kts
18-May-20 14:54 34.197829 -118.355183 349 729ft 10kts
18-May-20 14:55 34.201786 -118.356241 343 729ft 7kts
18-May-20 14:56 34.206609 -118.357568 348 729ft 24kts
18-May-20 14:57 34.210988 -118.358792 344 729ft 14kts
18-May-20 14:58 34.211774 -118.359349 312 729ft 0kts
18-May-20 14:59 34.211851 -118.360359 170 729ft 0kts
18-May-20 15:00 34.198777 -118.356798 167 866ft 162kts
18-May-20 15:01 34.156816 -118.379894 221 4086ft 210kts
18-May-20 15:02 34.108140 -118.434105 231 5962ft 236kts
18-May-20 15:03 34.129861 -118.497998 345 9495ft 271kts
18-May-20 15:04 34.211427 -118.464122 22 11533ft 359kts
18-May-20 15:05 34.308799 -118.408924 22 12937ft 395kts
18-May-20 15:06 34.411584 -118.361900 13 14626ft 405kts
18-May-20 15:07 34.510911 -118.288374 42 17353ft 435kts
18-May-20 15:08 34.605520 -118.190161 40 19868ft 458kts
18-May-20 15:09 34.679108 -118.065683 82 22145ft 458kts
18-May-20 15:10 34.696120 -117.914297 94 24731ft 450kts
18-May-20 15:11 34.704304 -117.762047 94 24986ft 448kts
18-May-20 15:12 34.710384 -117.610972 95 24977ft 447kts
18-May-20 15:13 34.725522 -117.460064 80 24971ft 459kts
18-May-20 15:14 34.765704 -117.312220 78 24965ft 461kts
18-May-20 15:15 34.805190 -117.163989 78 24965ft 459kts
18-May-20 15:16 34.844594 -117.016171 78 24945ft 459kts
18-May-20 15:17 34.883285 -116.868266 78 24910ft 458kts
18-May-20 15:18 34.925523 -116.721039 69 24901ft 464kts
18-May-20 15:19 34.997604 -116.589306 59 24907ft 464kts
18-May-20 15:20 35.070032 -116.461095 59 24077ft 452kts
18-May-20 15:21 35.149725 -116.342508 47 23003ft 453kts
18-May-20 15:22 35.229869 -116.243259 48 21461ft 440kts
18-May-20 15:23 35.313950 -116.137739 48 19847ft 427kts
18-May-20 15:24 35.395896 -116.034801 48 18266ft 418kts
18-May-20 15:25 35.475587 -115.934401 48 16881ft 398kts
18-May-20 15:26 35.552397 -115.837050 49 15418ft 391kts
18-May-20 15:27 35.626799 -115.742188 49 13979ft 373kts
18-May-20 15:28 35.695372 -115.654677 49 13046ft 341kts
18-May-20 15:29 35.767466 -115.578066 19 13019ft 349kts
18-May-20 15:30 35.863188 -115.569009 358 13029ft 346kts
18-May-20 15:31 35.959029 -115.559388 20 13005ft 349kts
18-May-20 15:32 36.006187 -115.466313 94 11970ft 323kts
18-May-20 15:33 36.028652 -115.361039 92 10855ft 297kts
18-May-20 15:34 36.023128 -115.263569 100 9714ft 282kts
18-May-20 15:35 36.016264 -115.168001 99 8714ft 273kts
18-May-20 15:36 36.010244 -115.079586 99 7897ft 249kts
18-May-20 15:37 36.005366 -114.996345 100 6670ft 235kts
18-May-20 15:38 36.001502 -114.919760 99 5982ft 214kts
18-May-20 15:39 35.998180 -114.844508 99 5991ft 220kts
18-May-20 15:41 35.994629 -114.769770 99 5992ft 216kts
18-May-20 15:42 35.990072 -114.696102 78 5953ft 225kts
18-May-20 15:43 36.041143 -114.684708 301 5954ft 206kts
18-May-20 15:44 36.061465 -114.747604 283 5996ft 196kts
18-May-20 15:45 36.076963 -114.811384 271 5999ft 191kts
18-May-20 15:46 36.084531 -114.876869 267 5777ft 193kts
18-May-20 15:47 36.083880 -114.940481 255 4736ft 173kts
18-May-20 15:48 36.078154 -114.994605 255 3673ft 146kts
18-May-20 15:49 36.074590 -115.045089 259 3407ft 158kts
18-May-20 15:50 36.073918 -115.095482 266 2586ft 137kts
18-May-20 15:51 36.073622 -115.140732 270 2123ft 106kts
18-May-20 15:52 36.074282 -115.149598 299 2123ft 0kts
18-May-20 15:53 36.074285 -115.149604 299 2123ft 0kts
18-May-20 15:54 36.075459 -115.151333 335 2123ft 12kts
18-May-20 15:55 36.077319 -115.152506 332 2123ft 6kts
18-May-20 15:56 36.080373 -115.154286 334 2123ft 13kts
18-May-20 15:56 36.081398 -115.154238 96 2123ft 2kts
18-May-20 15:58 36.082095 -115.153188 15 2123ft 2kts
18-May-20 15:59 36.082277 -115.153123 16 2123ft 0kts
18-May-20 15:59 36.082277 -115.153123 16 2123ft 0kts
18-May-20 16:00 36.082277 -115.153123 16 2123ft 0kts
18-May-20 16:02 36.082277 -115.153123 16 2123ft 0kts
18-May-20 16:02 36.082277 -115.153123 16 2123ft 0kts
18-May-20 16:03 36.082277 -115.153123 16 2123ft 0kts

Navigation Log

Ident Type
Flight plan parsing failed, navigation log unavailable